Time,TemperatureF,DewpointF,PressureIn,WindDirection,WindDirectionDegrees,WindSpeedMPH,WindSpeedGustMPH,Humidity,HourlyPrecipIn,Conditions,Clouds,dailyrainin,SoftwareType,DateUTC
2013-03-20 00:00:00,68.0,60.9,32.50,SE,135,0.0,1.0,78,0.00,,,0.00,Weather View 32 v70,2013-03-20 04:00:00,
2013-03-20 00:30:00,68.0,61.6,32.51,SSE,157,0.0,1.0,80,0.00,,,0.00,Weather View 32 v70,2013-03-20 04:30:00,
2013-03-20 01:00:00,67.0,61.6,32.52,East,90,0.0,1.0,83,0.00,,,0.00,Weather View 32 v70,2013-03-20 05:00:00,
2013-03-20 01:30:00,66.0,61.3,32.50,ESE,112,0.0,1.0,85,0.00,,,0.00,Weather View 32 v70,2013-03-20 05:30:00,
2013-03-20 02:00:00,66.0,61.0,32.45,ESE,112,0.0,3.0,84,0.00,,,0.00,Weather View 32 v70,2013-03-20 06:00:00,
2013-03-20 02:30:00,66.0,61.0,32.42,East,90,0.0,3.0,84,0.00,,,0.00,Weather View 32 v70,2013-03-20 06:30:00,
2013-03-20 03:00:00,66.0,60.7,32.38,East,90,0.0,1.0,83,0.00,,,0.00,Weather View 32 v70,2013-03-20 07:00:00,
2013-03-20 03:30:00,66.0,60.7,32.32,ESE,112,0.0,1.0,83,0.00,,,0.00,Weather View 32 v70,2013-03-20 07:30:00,
2013-03-20 04:00:00,65.0,59.7,32.25,ESE,112,0.0,1.0,83,0.00,,,0.00,Weather View 32 v70,2013-03-20 08:00:00,
2013-03-20 04:30:00,64.0,58.7,32.17,ESE,112,0.0,0.0,83,0.00,,,0.00,Weather View 32 v70,2013-03-20 08:30:00,
2013-03-20 05:00:00,64.0,58.4,32.10,ESE,112,0.0,0.0,82,0.00,,,0.00,Weather View 32 v70,2013-03-20 09:00:00,
2013-03-20 05:30:00,64.0,58.4,32.05,SW,225,0.0,0.0,82,0.00,,,0.00,Weather View 32 v70,2013-03-20 09:30:00,
2013-03-20 06:00:00,63.0,57.1,32.01,SW,225,0.0,0.0,81,0.00,,,0.00,Weather View 32 v70,2013-03-20 10:00:00,
2013-03-20 06:30:00,63.0,57.1,32.00,ESE,112,0.0,0.0,81,0.00,,,0.00,Weather View 32 v70,2013-03-20 10:30:00,
2013-03-20 07:00:00,64.0,58.0,32.00,East,90,0.0,0.0,81,0.00,,,0.00,Weather View 32 v70,2013-03-20 11:00:00,
2013-03-20 07:30:00,64.0,58.0,32.00,SE,135,0.0,1.0,81,0.00,,,0.00,Weather View 32 v70,2013-03-20 11:30:00,
2013-03-20 08:00:00,65.0,59.0,31.99,SE,135,0.0,1.0,81,0.00,,,0.00,Weather View 32 v70,2013-03-20 12:00:00,
2013-03-20 08:30:00,65.0,58.3,32.00,NW,315,0.0,1.0,79,0.00,,,0.00,Weather View 32 v70,2013-03-20 12:30:00,
2013-03-20 09:00:00,64.0,58.0,32.01,SE,135,0.0,1.0,81,0.00,,,0.00,Weather View 32 v70,2013-03-20 13:00:00,
2013-03-20 09:30:00,62.0,55.7,32.07,SE,135,0.0,0.0,80,0.27,,,0.27,Weather View 32 v70,2013-03-20 13:30:00,
2013-03-20 10:00:00,62.0,55.7,32.09,SE,135,0.0,0.0,80,0.27,,,0.27,Weather View 32 v70,2013-03-20 14:00:00,
2013-03-20 10:30:00,64.0,58.0,32.02,East,90,0.0,0.0,81,0.00,,,0.27,Weather View 32 v70,2013-03-20 14:30:00,
2013-03-20 11:00:00,66.0,61.7,32.48,East,90,0.0,0.0,86,0.00,,,0.27,Weather View 32 v70,2013-03-20 15:00:00,
2013-03-20 11:30:00,67.0,62.3,32.50,East,90,0.0,0.0,85,0.00,,,0.27,Weather View 32 v70,2013-03-20 15:30:00,
2013-03-20 12:00:00,68.0,63.6,32.48,East,90,0.0,0.0,86,0.00,,,0.27,Weather View 32 v70,2013-03-20 16:00:00,
2013-03-20 12:30:00,68.0,63.3,32.50,NW,315,0.0,0.0,85,0.00,,,0.27,Weather View 32 v70,2013-03-20 16:30:00,
2013-03-20 13:00:00,69.0,64.3,32.48,NE,45,0.0,0.0,85,0.00,,,0.27,Weather View 32 v70,2013-03-20 17:00:00,
2013-03-20 13:30:00,69.0,63.9,32.44,NE,45,0.0,0.0,84,0.00,,,0.27,Weather View 32 v70,2013-03-20 17:30:00,
2013-03-20 14:00:00,70.0,65.3,32.41,NE,45,0.0,0.0,85,0.00,,,0.27,Weather View 32 v70,2013-03-20 18:00:00,
2013-03-20 14:30:00,70.0,65.3,32.40,NE,45,0.0,0.0,85,0.00,,,0.27,Weather View 32 v70,2013-03-20 18:30:00,
2013-03-20 14:35:00,70.0,65.3,32.40,NE,45,0.0,0.0,85,0.00,,,0.27,Weather View 32 v70,2013-03-20 18:35:00,
2013-03-20 15:00:00,71.0,66.2,32.42,ESE,112,0.0,0.0,85,0.00,,,0.27,Weather View 32 v70,2013-03-20 19:00:00,
2013-03-20 15:30:00,70.0,65.3,32.37,ESE,112,0.0,0.0,85,0.00,,,0.27,Weather View 32 v70,2013-03-20 19:30:00,
2013-03-20 15:36:00,70.0,65.3,32.37,ESE,112,0.0,0.0,85,0.00,,,0.27,Weather View 32 v70,2013-03-20 19:36:00,
2013-03-20 16:00:00,71.0,64.5,32.35,SE,135,0.0,0.0,80,0.00,,,0.27,Weather View 32 v70,2013-03-20 20:00:00,
2013-03-20 16:30:00,71.0,65.9,32.33,SE,135,0.0,0.0,84,0.00,,,0.27,Weather View 32 v70,2013-03-20 20:30:00,
2013-03-20 16:36:00,71.0,65.9,32.33,SE,135,0.0,0.0,84,0.00,,,0.27,Weather View 32 v70,2013-03-20 20:36:00,
2013-03-20 17:00:00,71.0,65.9,32.27,SE,135,0.0,0.0,84,0.00,,,0.27,Weather View 32 v70,2013-03-20 21:00:00,
2013-03-20 17:30:00,71.0,65.9,32.21,SE,135,0.0,0.0,84,0.00,,,0.27,Weather View 32 v70,2013-03-20 21:30:00,
2013-03-20 17:37:00,71.0,65.9,32.21,SE,135,0.0,0.0,84,0.00,,,0.27,Weather View 32 v70,2013-03-20 21:37:00,
2013-03-20 18:00:00,70.0,64.9,32.13,SE,135,0.0,0.0,84,0.00,,,0.27,Weather View 32 v70,2013-03-20 22:00:00,
2013-03-20 18:30:00,69.0,63.3,32.08,SE,135,0.0,0.0,82,0.00,,,0.27,Weather View 32 v70,2013-03-20 22:30:00,
2013-03-20 18:37:00,69.0,63.3,32.08,SE,135,0.0,0.0,82,0.00,,,0.27,Weather View 32 v70,2013-03-20 22:37:00,
2013-03-20 19:02:00,68.0,61.9,32.02,SE,135,0.0,0.0,81,0.00,,,0.27,Weather View 32 v70,2013-03-20 23:02:00,
2013-03-20 19:07:00,68.0,62.3,32.02,SE,135,0.0,0.0,82,0.00,,,0.27,Weather View 32 v70,2013-03-20 23:07:00,
2013-03-20 19:12:00,68.0,61.9,32.01,SE,135,0.0,0.0,81,0.00,,,0.27,Weather View 32 v70,2013-03-20 23:12:00,
2013-03-20 19:17:00,68.0,62.3,32.01,SE,135,0.0,0.0,82,0.00,,,0.27,Weather View 32 v70,2013-03-20 23:17:00,
2013-03-20 19:22:00,68.0,62.3,31.99,SE,135,0.0,0.0,82,0.00,,,0.27,Weather View 32 v70,2013-03-20 23:22:00,
2013-03-20 19:27:00,67.0,61.3,31.99,SE,135,0.0,0.0,82,0.00,,,0.27,Weather View 32 v70,2013-03-20 23:27:00,
2013-03-20 19:32:00,67.0,61.0,31.97,SE,135,0.0,0.0,81,0.00,,,0.27,Weather View 32 v70,2013-03-20 23:32:00,
2013-03-20 19:37:00,67.0,61.0,31.97,SE,135,0.0,0.0,81,0.00,,,0.27,Weather View 32 v70,2013-03-20 23:37:00,
2013-03-20 19:42:00,67.0,61.0,31.96,SE,135,0.0,0.0,81,0.00,,,0.27,Weather View 32 v70,2013-03-20 23:42:00,
2013-03-20 19:47:00,66.0,60.0,31.96,SE,135,0.0,0.0,81,0.00,,,0.27,Weather View 32 v70,2013-03-20 23:47:00,
2013-03-20 19:52:00,66.0,60.0,31.95,SE,135,0.0,0.0,81,0.00,,,0.27,Weather View 32 v70,2013-03-20 23:52:00,
2013-03-20 19:57:00,66.0,60.0,31.95,SE,135,0.0,0.0,81,0.00,,,0.27,Weather View 32 v70,2013-03-20 23:57:00,
2013-03-20 20:02:00,66.0,60.0,31.96,WSW,247,0.0,0.0,81,0.00,,,0.27,Weather View 32 v70,2013-03-21 00:02:00,
2013-03-20 20:07:00,66.0,60.0,31.96,WSW,247,0.0,0.0,81,0.00,,,0.27,Weather View 32 v70,2013-03-21 00:07:00,
2013-03-20 20:12:00,66.0,60.0,31.96,West,270,0.0,0.0,81,0.00,,,0.27,Weather View 32 v70,2013-03-21 00:12:00,
2013-03-20 20:17:00,65.0,59.0,31.96,WNW,292,0.0,0.0,81,0.00,,,0.27,Weather View 32 v70,2013-03-21 00:17:00,
2013-03-20 20:22:00,65.0,59.0,31.95,NNE,22,0.0,0.0,81,0.00,,,0.27,Weather View 32 v70,2013-03-21 00:22:00,
2013-03-20 20:27:00,64.0,58.0,31.95,NNE,22,0.0,1.0,81,0.00,,,0.27,Weather View 32 v70,2013-03-21 00:27:00,
2013-03-20 20:32:00,64.0,58.0,31.95,NNE,22,0.0,1.0,81,0.00,,,0.27,Weather View 32 v70,2013-03-21 00:32:00,
2013-03-20 20:37:00,63.0,56.7,31.95,ESE,112,0.0,1.0,80,0.00,,,0.27,Weather View 32 v70,2013-03-21 00:37:00,
2013-03-20 20:42:00,63.0,56.7,31.95,NW,315,0.0,1.0,80,0.00,,,0.27,Weather View 32 v70,2013-03-21 00:42:00,
2013-03-20 20:47:00,62.0,55.7,31.95,ESE,112,0.0,1.0,80,0.00,,,0.27,Weather View 32 v70,2013-03-21 00:47:00,
2013-03-20 20:52:00,62.0,55.7,31.95,ESE,112,0.0,1.0,80,0.00,,,0.27,Weather View 32 v70,2013-03-21 00:52:00,
2013-03-20 20:57:00,61.0,54.8,31.95,NW,315,0.0,1.0,80,0.00,,,0.27,Weather View 32 v70,2013-03-21 00:57:00,
2013-03-20 21:02:00,61.0,54.8,31.96,ESE,112,0.0,1.0,80,0.00,,,0.27,Weather View 32 v70,2013-03-21 01:02:00,
2013-03-20 21:07:00,61.0,54.8,31.96,East,90,0.0,1.0,80,0.00,,,0.27,Weather View 32 v70,2013-03-21 01:07:00,
2013-03-20 21:12:00,61.0,54.8,31.99,East,90,0.0,1.0,80,0.00,,,0.27,Weather View 32 v70,2013-03-21 01:12:00,
2013-03-20 21:17:00,61.0,54.8,31.99,East,90,0.0,1.0,80,0.00,,,0.27,Weather View 32 v70,2013-03-21 01:17:00,
2013-03-20 21:22:00,60.0,53.8,32.00,East,90,0.0,1.0,80,0.00,,,0.27,Weather View 32 v70,2013-03-21 01:22:00,
2013-03-20 21:27:00,60.0,53.8,32.00,East,90,0.0,2.0,80,0.00,,,0.27,Weather View 32 v70,2013-03-21 01:27:00,
2013-03-20 21:32:00,60.0,53.8,32.01,East,90,0.0,2.0,80,0.01,,,0.28,Weather View 32 v70,2013-03-21 01:32:00,
2013-03-20 21:37:00,60.0,53.8,32.01,East,90,0.0,2.0,80,0.01,,,0.28,Weather View 32 v70,2013-03-21 01:37:00,
2013-03-20 21:42:00,60.0,53.8,32.04,East,90,0.0,2.0,80,0.01,,,0.28,Weather View 32 v70,2013-03-21 01:42:00,
2013-03-20 21:47:00,59.0,52.8,32.04,East,90,0.0,2.0,80,0.01,,,0.28,Weather View 32 v70,2013-03-21 01:47:00,
2013-03-20 21:52:00,59.0,52.8,32.08,East,90,0.0,2.0,80,0.01,,,0.28,Weather View 32 v70,2013-03-21 01:52:00,
2013-03-20 21:57:00,59.0,52.8,32.08,East,90,0.0,2.0,80,0.01,,,0.28,Weather View 32 v70,2013-03-21 01:57:00,
2013-03-20 22:02:00,59.0,52.5,32.13,East,90,0.0,2.0,79,0.01,,,0.28,Weather View 32 v70,2013-03-21 02:02:00,
2013-03-20 22:07:00,58.0,51.2,32.13,East,90,0.0,2.0,78,0.01,,,0.28,Weather View 32 v70,2013-03-21 02:07:00,
2013-03-20 22:12:00,58.0,51.2,32.21,East,90,0.0,2.0,78,0.01,,,0.28,Weather View 32 v70,2013-03-21 02:12:00,
2013-03-20 22:17:00,58.0,51.2,32.21,East,90,0.0,2.0,78,0.01,,,0.28,Weather View 32 v70,2013-03-21 02:17:00,
2013-03-20 22:22:00,58.0,51.2,32.29,East,90,0.0,2.0,78,0.01,,,0.28,Weather View 32 v70,2013-03-21 02:22:00,
2013-03-20 22:27:00,58.0,51.2,32.29,East,90,0.0,0.0,78,0.01,,,0.28,Weather View 32 v70,2013-03-21 02:27:00,
2013-03-20 22:32:00,58.0,51.2,32.37,East,90,0.0,0.0,78,0.00,,,0.28,Weather View 32 v70,2013-03-21 02:32:00,
2013-03-20 22:37:00,58.0,51.2,32.37,East,90,0.0,0.0,78,0.00,,,0.28,Weather View 32 v70,2013-03-21 02:37:00,
2013-03-20 22:42:00,58.0,51.2,32.44,East,90,0.0,0.0,78,0.00,,,0.28,Weather View 32 v70,2013-03-21 02:42:00,
2013-03-20 22:47:00,58.0,51.2,32.44,East,90,0.0,0.0,78,0.00,,,0.28,Weather View 32 v70,2013-03-21 02:47:00,
2013-03-20 22:52:00,58.0,51.2,32.52,East,90,0.0,0.0,78,0.00,,,0.28,Weather View 32 v70,2013-03-21 02:52:00,
2013-03-20 22:57:00,58.0,51.2,32.52,East,90,0.0,0.0,78,0.00,,,0.28,Weather View 32 v70,2013-03-21 02:57:00,
2013-03-20 23:02:00,58.0,51.2,32.63,East,90,0.0,0.0,78,0.00,,,0.28,Weather View 32 v70,2013-03-21 03:02:00,
2013-03-20 23:07:00,58.0,51.2,32.63,East,90,0.0,0.0,78,0.00,,,0.28,Weather View 32 v70,2013-03-21 03:07:00,
2013-03-20 23:30:00,58.0,51.2,32.70,East,90,0.0,0.0,78,0.00,,,0.28,Weather View 32 v70,2013-03-21 03:30:00,